Time;durP1;ratioP1;P1;durP2;ratioP2;P2;SDS_P1;SDS_P2;PMS_P1;PMS_P2;Temp;Humidity;BMP_temperature;BMP_pressure;BME280_temperature;BME280_humidity;BME280_pressure;Samples;Min_cycle;Max_cycle;Signal;HPM_P1;HPM_P2
2023/12/13 00:02:17;;;;;;;9.60;4.45;;;;;;;;;;4978835;28;20106;-80
2023/12/13 00:04:42;;;;;;;8.98;3.88;;;;;;;;;;4979965;28;20042;-80
2023/12/13 00:07:07;;;;;;;8.55;3.45;;;;;;;;;;4982121;28;20069;-80
2023/12/13 00:09:32;;;;;;;11.00;4.45;;;;;;;;;;4980545;28;20049;-79
2023/12/13 00:11:58;;;;;;;9.20;4.00;;;;;;;;;;4980725;28;20045;-80
2023/12/13 00:14:23;;;;;;;11.40;4.13;;;;;;;;;;4982462;28;20035;-80
2023/12/13 00:16:48;;;;;;;10.63;4.10;;;;;;;;;;4982008;28;20037;-80
2023/12/13 00:19:13;;;;;;;10.80;3.47;;;;;;;;;;4981838;28;20038;-80
2023/12/13 00:21:38;;;;;;;11.43;4.28;;;;;;;;;;4981536;28;20035;-80
2023/12/13 00:24:04;;;;;;;10.32;4.18;;;;;;;;;;4981049;28;20033;-80
2023/12/13 00:26:29;;;;;;;10.88;3.90;;;;;;;;;;4982505;28;20030;-80
2023/12/13 00:28:55;;;;;;;8.65;3.00;;;;;;;;;;4981291;28;20030;-79
2023/12/13 00:31:20;;;;;;;10.45;2.90;;;;;;;;;;4980490;28;20038;-80
2023/12/13 00:33:45;;;;;;;11.48;3.80;;;;;;;;;;4981505;28;20112;-80
2023/12/13 00:36:10;;;;;;;9.75;4.00;;;;;;;;;;4982317;28;20035;-80
2023/12/13 00:38:36;;;;;;;8.80;4.07;;;;;;;;;;4979460;28;20030;-80
2023/12/13 00:41:01;;;;;;;15.43;4.75;;;;;;;;;;4980730;28;20034;-78
2023/12/13 00:43:26;;;;;;;9.23;3.58;;;;;;;;;;4982765;28;20088;-80
2023/12/13 00:45:51;;;;;;;9.40;3.35;;;;;;;;;;4980596;28;20064;-79
2023/12/13 00:48:16;;;;;;;11.15;3.47;;;;;;;;;;4982861;28;20035;-80
2023/12/13 00:50:41;;;;;;;9.20;3.22;;;;;;;;;;4980431;28;20410;-80
2023/12/13 00:53:07;;;;;;;10.25;3.70;;;;;;;;;;4980184;28;20042;-80
2023/12/13 00:55:32;;;;;;;11.00;3.88;;;;;;;;;;4982770;28;20407;-80
2023/12/13 00:57:57;;;;;;;12.90;3.90;;;;;;;;;;4981479;28;20034;-80
2023/12/13 01:00:23;;;;;;;10.95;3.60;;;;;;;;;;4985283;28;20577;-80
2023/12/13 01:02:48;;;;;;;8.32;3.28;;;;;;;;;;4980634;28;20446;-80
2023/12/13 01:05:13;;;;;;;12.15;3.38;;;;;;;;;;4980389;28;20035;-78
2023/12/13 01:07:38;;;;;;;10.68;3.70;;;;;;;;;;4983170;28;20486;-81
2023/12/13 01:10:04;;;;;;;13.65;3.67;;;;;;;;;;4980558;28;20035;-79
2023/12/13 01:12:29;;;;;;;13.27;4.18;;;;;;;;;;4982988;28;20058;-79
2023/12/13 01:14:54;;;;;;;12.40;4.18;;;;;;;;;;4983182;28;20050;-80
2023/12/13 01:17:20;;;;;;;9.68;3.90;;;;;;;;;;4983059;28;20492;-80
2023/12/13 01:19:45;;;;;;;11.32;3.70;;;;;;;;;;4980366;28;20077;-80
2023/12/13 01:22:10;;;;;;;8.82;3.35;;;;;;;;;;4980634;28;20035;-81
2023/12/13 01:24:36;;;;;;;8.27;3.30;;;;;;;;;;4983422;28;20026;-80
2023/12/13 01:27:01;;;;;;;10.25;4.07;;;;;;;;;;4982961;28;20042;-80
2023/12/13 01:29:26;;;;;;;10.20;3.20;;;;;;;;;;4979312;28;20483;-80
2023/12/13 01:31:51;;;;;;;9.10;3.42;;;;;;;;;;4976953;28;20128;-80
2023/12/13 01:34:16;;;;;;;13.75;4.07;;;;;;;;;;4980218;28;20035;-80
2023/12/13 01:36:42;;;;;;;11.88;4.45;;;;;;;;;;4981753;28;20037;-80
2023/12/13 01:39:07;;;;;;;11.60;3.67;;;;;;;;;;4979071;28;20117;-80
2023/12/13 01:41:32;;;;;;;9.20;3.40;;;;;;;;;;4981761;28;20030;-80
2023/12/13 01:43:58;;;;;;;9.77;3.97;;;;;;;;;;4978424;28;20086;-79
2023/12/13 01:46:23;;;;;;;11.68;4.68;;;;;;;;;;4982919;28;20429;-80
2023/12/13 01:48:48;;;;;;;11.65;3.67;;;;;;;;;;4979732;28;20132;-80
2023/12/13 01:51:14;;;;;;;8.50;3.60;;;;;;;;;;4978125;28;20026;-80
2023/12/13 01:53:40;;;;;;;11.13;3.53;;;;;;;;;;4977155;28;20110;-80
2023/12/13 01:56:06;;;;;;;8.88;3.40;;;;;;;;;;4983452;28;20039;-80
2023/12/13 01:58:32;;;;;;;12.35;3.90;;;;;;;;;;4981180;28;20440;-80
2023/12/13 02:00:57;;;;;;;12.23;3.53;;;;;;;;;;4979766;28;20064;-80
2023/12/13 02:03:24;;;;;;;9.73;3.55;;;;;;;;;;4980293;28;20023;-80
2023/12/13 02:05:51;;;;;;;8.27;3.60;;;;;;;;;;4979071;28;20023;-80
2023/12/13 02:08:16;;;;;;;8.98;4.13;;;;;;;;;;4980811;28;20387;-79
2023/12/13 02:10:41;;;;;;;11.65;3.92;;;;;;;;;;4980548;28;20095;-80
2023/12/13 02:13:07;;;;;;;9.48;3.65;;;;;;;;;;4978633;28;20456;-80
2023/12/13 02:15:35;;;;;;;11.57;4.55;;;;;;;;;;4979146;28;20129;-80
2023/12/13 02:18:00;;;;;;;12.27;3.90;;;;;;;;;;4974586;28;20027;-80
2023/12/13 02:20:26;;;;;;;9.75;4.10;;;;;;;;;;4980628;28;20027;-80
2023/12/13 02:22:51;;;;;;;10.00;4.38;;;;;;;;;;4980311;28;20501;-80
2023/12/13 02:25:19;;;;;;;10.18;4.40;;;;;;;;;;4980350;28;20027;-80
2023/12/13 02:27:44;;;;;;;12.32;4.60;;;;;;;;;;4980288;28;20026;-79
2023/12/13 02:30:10;;;;;;;7.65;3.58;;;;;;;;;;4976354;28;20084;-80
2023/12/13 02:32:36;;;;;;;9.68;3.90;;;;;;;;;;4981615;28;20035;-80
2023/12/13 02:35:02;;;;;;;9.20;4.30;;;;;;;;;;4980036;28;20041;-80
2023/12/13 02:37:27;;;;;;;10.32;3.65;;;;;;;;;;4981232;28;20034;-80
2023/12/13 02:39:52;;;;;;;12.88;4.58;;;;;;;;;;4979487;28;20096;-80
2023/12/13 02:42:17;;;;;;;13.70;4.55;;;;;;;;;;4981750;28;20101;-81
2023/12/13 02:44:43;;;;;;;11.88;4.40;;;;;;;;;;4975764;28;20056;-79
2023/12/13 02:47:09;;;;;;;10.80;4.55;;;;;;;;;;4977973;28;20039;-80
2023/12/13 02:49:34;;;;;;;12.30;4.68;;;;;;;;;;4982062;28;20026;-81
2023/12/13 02:51:59;;;;;;;13.60;4.50;;;;;;;;;;4980071;28;20049;-80
2023/12/13 02:54:24;;;;;;;12.50;4.95;;;;;;;;;;4982392;28;20069;-80
2023/12/13 02:56:50;;;;;;;10.98;4.13;;;;;;;;;;4979930;28;20037;-80
2023/12/13 02:59:15;;;;;;;10.10;4.20;;;;;;;;;;4979576;28;20031;-80
2023/12/13 03:01:40;;;;;;;12.68;4.25;;;;;;;;;;4980151;28;20026;-81
2023/12/13 03:04:05;;;;;;;12.55;3.88;;;;;;;;;;4979295;28;20037;-80
2023/12/13 03:06:30;;;;;;;12.02;4.20;;;;;;;;;;4983240;28;20064;-81
2023/12/13 03:08:55;;;;;;;12.43;4.07;;;;;;;;;;4979706;28;20095;-80
2023/12/13 03:11:21;;;;;;;9.95;4.82;;;;;;;;;;4978369;28;20335;-81
2023/12/13 03:13:46;;;;;;;10.25;4.60;;;;;;;;;;4981521;28;20053;-80
2023/12/13 03:16:11;;;;;;;10.57;4.32;;;;;;;;;;4978425;28;20041;-79
2023/12/13 03:18:36;;;;;;;13.02;5.28;;;;;;;;;;4979737;28;20099;-80
2023/12/13 03:21:02;;;;;;;10.88;4.32;;;;;;;;;;4977798;28;20563;-80
2023/12/13 03:23:27;;;;;;;14.55;5.28;;;;;;;;;;4980751;28;20054;-80
2023/12/13 03:25:52;;;;;;;12.15;4.88;;;;;;;;;;4978195;28;20058;-80
2023/12/13 03:28:17;;;;;;;10.38;4.80;;;;;;;;;;4977911;28;20061;-79
2023/12/13 03:30:42;;;;;;;11.20;4.22;;;;;;;;;;4982757;28;20022;-80
2023/12/13 03:33:07;;;;;;;13.65;4.95;;;;;;;;;;4978197;28;20030;-79
2023/12/13 03:35:33;;;;;;;10.48;5.15;;;;;;;;;;4983218;28;20062;-81
2023/12/13 03:37:58;;;;;;;10.18;4.78;;;;;;;;;;4981850;28;20034;-80
2023/12/13 03:40:23;;;;;;;12.87;5.10;;;;;;;;;;4980236;28;20022;-80
2023/12/13 03:42:48;;;;;;;14.10;5.07;;;;;;;;;;4985216;28;20277;-80
2023/12/13 03:45:13;;;;;;;11.70;5.20;;;;;;;;;;4982042;28;20039;-80
2023/12/13 03:47:38;;;;;;;10.07;5.57;;;;;;;;;;4984855;28;20027;-80
2023/12/13 03:50:04;;;;;;;14.13;5.40;;;;;;;;;;4980458;28;20041;-79
2023/12/13 03:52:29;;;;;;;11.50;4.20;;;;;;;;;;4981699;28;20037;-80
2023/12/13 03:54:54;;;;;;;11.85;5.05;;;;;;;;;;4984874;28;20038;-80
2023/12/13 03:57:19;;;;;;;13.13;5.32;;;;;;;;;;4976994;28;20027;-80
2023/12/13 03:59:44;;;;;;;11.80;5.00;;;;;;;;;;4984663;28;20030;-80
2023/12/13 04:02:10;;;;;;;11.20;4.88;;;;;;;;;;4981883;28;20411;-79
2023/12/13 04:04:35;;;;;;;13.48;5.45;;;;;;;;;;4984499;28;20057;-80
2023/12/13 04:07:00;;;;;;;13.73;5.55;;;;;;;;;;4981179;28;20045;-80
2023/12/13 04:09:25;;;;;;;12.98;6.40;;;;;;;;;;4980835;28;20031;-80
2023/12/13 04:11:57;;;;;;;12.52;5.90;;;;;;;;;;4982384;28;20034;-79
2023/12/13 04:14:22;;;;;;;13.18;6.32;;;;;;;;;;4979696;28;20039;-81
2023/12/13 04:16:48;;;;;;;11.95;5.85;;;;;;;;;;4980925;28;20027;-80
2023/12/13 04:19:13;;;;;;;10.38;5.07;;;;;;;;;;4982278;28;20050;-80
2023/12/13 04:21:38;;;;;;;14.85;5.82;;;;;;;;;;4980599;28;20085;-79
2023/12/13 04:24:04;;;;;;;10.88;5.20;;;;;;;;;;4983739;28;20029;-80
2023/12/13 04:26:29;;;;;;;12.05;5.72;;;;;;;;;;4984071;28;20483;-82
2023/12/13 04:28:54;;;;;;;14.80;6.03;;;;;;;;;;4984146;28;20113;-83
2023/12/13 04:31:19;;;;;;;24.40;5.70;;;;;;;;;;4985291;28;20037;-81
2023/12/13 04:33:45;;;;;;;12.02;6.55;;;;;;;;;;4984609;28;20022;-83
2023/12/13 04:36:10;;;;;;;15.02;6.80;;;;;;;;;;4981794;28;20612;-82
2023/12/13 04:38:35;;;;;;;12.23;5.93;;;;;;;;;;4984634;28;20027;-81
2023/12/13 04:41:00;;;;;;;14.38;7.10;;;;;;;;;;4982331;28;20452;-82
2023/12/13 04:43:26;;;;;;;14.20;6.80;;;;;;;;;;4986452;28;20035;-82
2023/12/13 04:45:51;;;;;;;11.85;5.93;;;;;;;;;;4983719;28;20407;-81
2023/12/13 04:48:16;;;;;;;12.98;6.32;;;;;;;;;;4982804;28;20088;-82
2023/12/13 04:50:41;;;;;;;14.48;7.63;;;;;;;;;;4979847;28;20030;-81
2023/12/13 04:53:06;;;;;;;15.60;9.32;;;;;;;;;;4983868;28;20043;-81
2023/12/13 04:55:32;;;;;;;13.07;7.32;;;;;;;;;;4984843;28;20041;-81
2023/12/13 04:57:57;;;;;;;14.43;6.75;;;;;;;;;;4984016;28;20035;-81
2023/12/13 05:00:22;;;;;;;11.13;7.13;;;;;;;;;;4983803;28;20164;-81
2023/12/13 05:02:47;;;;;;;13.07;7.47;;;;;;;;;;4984781;28;20375;-81
2023/12/13 05:05:12;;;;;;;11.13;6.30;;;;;;;;;;4983537;28;20031;-81
2023/12/13 05:07:37;;;;;;;12.23;6.18;;;;;;;;;;4984948;28;20542;-80
2023/12/13 05:10:03;;;;;;;16.33;8.82;;;;;;;;;;4979223;28;20027;-81
2023/12/13 05:12:28;;;;;;;11.95;6.13;;;;;;;;;;4985178;28;20070;-81
2023/12/13 05:14:53;;;;;;;13.23;6.97;;;;;;;;;;4984265;28;20022;-81
2023/12/13 05:17:18;;;;;;;15.02;7.40;;;;;;;;;;4982594;28;20035;-81
2023/12/13 05:19:43;;;;;;;11.55;6.38;;;;;;;;;;4984471;28;20114;-84
2023/12/13 05:22:09;;;;;;;13.68;7.00;;;;;;;;;;4979591;28;20050;-85
2023/12/13 05:24:34;;;;;;;10.98;6.68;;;;;;;;;;4968269;28;20075;-82
2023/12/13 05:26:59;;;;;;;17.90;9.73;;;;;;;;;;4975859;28;20038;-80
2023/12/13 05:29:24;;;;;;;13.57;8.93;;;;;;;;;;4981277;28;20061;-82
2023/12/13 05:31:49;;;;;;;12.65;7.53;;;;;;;;;;4982455;28;20027;-79
2023/12/13 05:34:15;;;;;;;14.88;8.43;;;;;;;;;;4974969;28;20034;-80
2023/12/13 05:36:40;;;;;;;16.33;8.80;;;;;;;;;;4976737;28;20045;-81
2023/12/13 05:39:07;;;;;;;14.35;7.40;;;;;;;;;;4979250;28;20034;-81
2023/12/13 05:41:32;;;;;;;16.83;9.10;;;;;;;;;;4971172;28;20038;-80
2023/12/13 05:43:57;;;;;;;16.35;8.35;;;;;;;;;;4979436;28;20030;-81
2023/12/13 05:46:22;;;;;;;13.38;8.55;;;;;;;;;;4970746;28;20568;-81
2023/12/13 05:48:47;;;;;;;11.40;7.65;;;;;;;;;;4977220;28;20106;-80
2023/12/13 05:51:12;;;;;;;15.93;8.75;;;;;;;;;;4977322;28;20056;-81
2023/12/13 05:53:38;;;;;;;14.68;8.35;;;;;;;;;;4983706;28;20114;-81
2023/12/13 05:56:03;;;;;;;11.98;6.93;;;;;;;;;;4979143;28;20035;-81
2023/12/13 05:58:29;;;;;;;13.93;8.68;;;;;;;;;;4978613;28;20066;-81
2023/12/13 06:00:54;;;;;;;13.60;7.63;;;;;;;;;;4983273;28;20022;-81
2023/12/13 06:03:20;;;;;;;11.48;7.78;;;;;;;;;;4981289;28;20510;-81
2023/12/13 06:05:46;;;;;;;14.48;8.40;;;;;;;;;;4983618;28;20497;-81
2023/12/13 06:08:11;;;;;;;12.52;8.32;;;;;;;;;;4981355;28;20042;-81
2023/12/13 06:10:36;;;;;;;13.18;7.15;;;;;;;;;;4984851;28;20699;-81
2023/12/13 06:13:01;;;;;;;13.57;7.75;;;;;;;;;;4982026;28;20522;-81
2023/12/13 06:15:26;;;;;;;14.00;8.45;;;;;;;;;;4978580;28;20034;-81
2023/12/13 06:17:52;;;;;;;13.68;7.93;;;;;;;;;;4982895;28;20034;-81
2023/12/13 06:20:17;;;;;;;12.63;7.53;;;;;;;;;;4981470;28;20118;-81
2023/12/13 06:22:42;;;;;;;13.40;8.68;;;;;;;;;;4983313;28;20038;-81
2023/12/13 06:25:08;;;;;;;14.57;9.40;;;;;;;;;;4979080;28;20061;-81
2023/12/13 06:27:33;;;;;;;14.77;8.63;;;;;;;;;;4981104;28;20092;-81
2023/12/13 06:29:58;;;;;;;11.88;8.68;;;;;;;;;;4979039;28;20409;-81
2023/12/13 06:32:23;;;;;;;11.95;7.47;;;;;;;;;;4980141;28;20035;-81
2023/12/13 06:34:48;;;;;;;13.85;8.93;;;;;;;;;;4983795;28;20092;-81
2023/12/13 06:37:14;;;;;;;13.95;8.27;;;;;;;;;;4982018;28;20591;-81
2023/12/13 06:39:39;;;;;;;16.75;8.75;;;;;;;;;;4978134;28;20072;-82
2023/12/13 06:42:04;;;;;;;14.77;8.00;;;;;;;;;;4980016;28;20027;-81
2023/12/13 06:44:29;;;;;;;14.35;9.52;;;;;;;;;;4981128;28;20089;-80
2023/12/13 06:46:55;;;;;;;15.27;9.13;;;;;;;;;;4981379;28;20144;-81
2023/12/13 06:49:22;;;;;;;12.88;8.23;;;;;;;;;;4977862;28;20042;-82
2023/12/13 06:51:48;;;;;;;16.35;9.32;;;;;;;;;;4978971;28;20022;-81
2023/12/13 06:54:13;;;;;;;12.52;8.45;;;;;;;;;;4979619;28;20034;-82
2023/12/13 06:56:39;;;;;;;16.00;9.20;;;;;;;;;;4976887;28;20451;-81
2023/12/13 06:59:04;;;;;;;17.83;10.20;;;;;;;;;;4978537;28;20034;-81
2023/12/13 07:01:29;;;;;;;16.33;9.60;;;;;;;;;;4979376;28;20023;-81
2023/12/13 07:03:54;;;;;;;17.67;10.48;;;;;;;;;;4980405;28;20027;-81
2023/12/13 07:06:20;;;;;;;13.18;8.20;;;;;;;;;;4978017;28;21216;-80
2023/12/13 07:08:45;;;;;;;18.67;12.35;;;;;;;;;;4974490;28;20123;-80
2023/12/13 07:11:11;;;;;;;24.65;16.40;;;;;;;;;;4976907;28;20035;-81
2023/12/13 07:13:36;;;;;;;19.70;13.23;;;;;;;;;;4980862;28;20034;-81
2023/12/13 07:16:01;;;;;;;18.40;11.48;;;;;;;;;;4977329;28;20038;-81
2023/12/13 07:18:26;;;;;;;22.30;13.00;;;;;;;;;;4975170;28;20117;-80
2023/12/13 07:20:52;;;;;;;15.07;10.73;;;;;;;;;;4983567;28;20042;-80
2023/12/13 07:23:17;;;;;;;15.55;9.38;;;;;;;;;;4978272;28;20504;-80
2023/12/13 07:25:42;;;;;;;15.23;10.38;;;;;;;;;;4979738;28;20026;-80
2023/12/13 07:28:08;;;;;;;14.95;10.25;;;;;;;;;;4975382;28;20494;-81
2023/12/13 07:30:33;;;;;;;15.43;9.77;;;;;;;;;;4982272;28;20110;-81
2023/12/13 07:32:58;;;;;;;16.52;10.68;;;;;;;;;;4976193;28;20124;-81
2023/12/13 07:35:24;;;;;;;18.40;12.23;;;;;;;;;;4975460;28;20035;-81
2023/12/13 07:37:49;;;;;;;21.70;12.90;;;;;;;;;;4983227;28;20034;-80
2023/12/13 07:40:14;;;;;;;19.80;13.35;;;;;;;;;;4970303;28;20031;-80
2023/12/13 07:42:40;;;;;;;29.55;17.95;;;;;;;;;;4979882;28;20034;-80
2023/12/13 07:45:05;;;;;;;21.85;14.45;;;;;;;;;;4976948;28;20459;-82
2023/12/13 07:47:30;;;;;;;19.60;12.13;;;;;;;;;;4974042;28;20027;-81
2023/12/13 07:49:55;;;;;;;15.77;10.57;;;;;;;;;;4980501;28;20034;-80
2023/12/13 07:52:21;;;;;;;17.25;10.70;;;;;;;;;;4972243;28;20046;-81
2023/12/13 07:54:48;;;;;;;12.82;8.50;;;;;;;;;;4980774;28;20057;-81
2023/12/13 07:57:13;;;;;;;16.77;10.38;;;;;;;;;;4976672;28;20031;-80
2023/12/13 07:59:38;;;;;;;13.98;8.00;;;;;;;;;;4979141;28;20018;-80
2023/12/13 08:02:04;;;;;;;14.57;8.30;;;;;;;;;;4975374;28;20445;-81
2023/12/13 08:04:29;;;;;;;13.75;8.82;;;;;;;;;;4970298;28;20034;-81
2023/12/13 08:06:55;;;;;;;13.85;8.15;;;;;;;;;;4979838;28;20034;-81
2023/12/13 08:09:20;;;;;;;12.90;8.75;;;;;;;;;;4972077;28;20698;-81
2023/12/13 08:11:46;;;;;;;25.88;16.48;;;;;;;;;;4979655;28;20483;-81
2023/12/13 08:14:12;;;;;;;34.13;22.67;;;;;;;;;;4975796;28;20755;-80
2023/12/13 08:16:37;;;;;;;22.73;14.48;;;;;;;;;;4975672;28;20037;-81
2023/12/13 08:19:02;;;;;;;20.50;12.75;;;;;;;;;;4978422;28;20121;-82
2023/12/13 08:21:27;;;;;;;20.75;14.32;;;;;;;;;;4980124;28;20037;-81
2023/12/13 08:23:53;;;;;;;18.33;11.82;;;;;;;;;;4983328;28;20101;-81
2023/12/13 08:26:18;;;;;;;14.60;8.85;;;;;;;;;;4980845;28;20043;-81
2023/12/13 08:28:43;;;;;;;12.63;8.65;;;;;;;;;;4982812;28;20057;-81
2023/12/13 08:31:10;;;;;;;12.20;7.93;;;;;;;;;;4970900;28;20082;-81
2023/12/13 08:33:35;;;;;;;10.18;7.65;;;;;;;;;;4979908;28;20491;-81
2023/12/13 08:36:00;;;;;;;19.42;10.13;;;;;;;;;;4972562;28;20114;-81
2023/12/13 08:38:25;;;;;;;14.73;10.07;;;;;;;;;;4978776;28;20030;-80
2023/12/13 08:40:50;;;;;;;15.98;10.43;;;;;;;;;;4986338;28;20080;-81
2023/12/13 08:43:16;;;;;;;14.00;8.93;;;;;;;;;;4983577;28;20487;-81
2023/12/13 08:45:41;;;;;;;12.65;9.05;;;;;;;;;;4980809;28;20027;-81
2023/12/13 08:48:07;;;;;;;14.82;9.25;;;;;;;;;;4980838;28;20034;-81
2023/12/13 08:50:32;;;;;;;11.77;7.93;;;;;;;;;;4981830;28;20031;-81
2023/12/13 08:52:57;;;;;;;13.82;8.40;;;;;;;;;;4980547;28;20125;-81
2023/12/13 08:55:23;;;;;;;12.95;8.55;;;;;;;;;;4979621;28;20034;-81
2023/12/13 08:57:48;;;;;;;13.82;8.57;;;;;;;;;;4978884;28;20443;-81
2023/12/13 09:00:13;;;;;;;14.23;10.13;;;;;;;;;;4976336;28;20032;-81
2023/12/13 09:02:38;;;;;;;14.05;9.75;;;;;;;;;;4975043;28;20037;-81
2023/12/13 09:05:04;;;;;;;12.95;8.43;;;;;;;;;;4981205;28;20046;-81
2023/12/13 09:07:29;;;;;;;12.43;8.48;;;;;;;;;;4981031;28;20585;-80
2023/12/13 09:09:54;;;;;;;13.13;9.23;;;;;;;;;;4980306;28;20058;-81
2023/12/13 09:12:19;;;;;;;14.07;9.43;;;;;;;;;;4980403;28;20030;-81
2023/12/13 09:14:44;;;;;;;13.43;8.38;;;;;;;;;;4982725;28;20034;-81
2023/12/13 09:17:10;;;;;;;12.27;7.82;;;;;;;;;;4958994;28;20113;-81
2023/12/13 09:19:35;;;;;;;12.50;7.75;;;;;;;;;;4978961;28;20038;-81
2023/12/13 09:22:03;;;;;;;10.93;7.70;;;;;;;;;;4973123;28;20038;-81
2023/12/13 09:24:28;;;;;;;11.80;7.68;;;;;;;;;;4983595;28;20159;-82
2023/12/13 09:26:54;;;;;;;11.00;7.57;;;;;;;;;;4981377;28;20113;-81
2023/12/13 09:29:19;;;;;;;11.18;7.20;;;;;;;;;;4975849;28;20393;-81
2023/12/13 09:31:45;;;;;;;12.27;7.32;;;;;;;;;;4981252;28;20023;-81
2023/12/13 09:34:10;;;;;;;12.80;7.22;;;;;;;;;;4977426;28;20045;-81
2023/12/13 09:36:35;;;;;;;10.15;6.63;;;;;;;;;;4961689;28;20027;-81
2023/12/13 09:39:01;;;;;;;9.73;5.85;;;;;;;;;;4985689;28;20023;-81
2023/12/13 09:41:29;;;;;;;10.65;6.85;;;;;;;;;;4978191;28;20088;-81
2023/12/13 09:43:54;;;;;;;11.77;6.75;;;;;;;;;;4974194;28;20224;-81
2023/12/13 09:46:20;;;;;;;9.98;6.97;;;;;;;;;;4981406;28;20061;-81
2023/12/13 09:48:45;;;;;;;13.25;8.30;;;;;;;;;;4983959;28;20062;-82
2023/12/13 09:51:11;;;;;;;9.98;6.63;;;;;;;;;;4980984;28;20057;-81
2023/12/13 09:53:38;;;;;;;9.48;5.43;;;;;;;;;;4977710;28;20546;-82
2023/12/13 09:56:04;;;;;;;10.55;7.03;;;;;;;;;;4976769;28;20042;-81
2023/12/13 09:58:29;;;;;;;12.23;7.35;;;;;;;;;;4976894;28;20031;-81
2023/12/13 10:00:56;;;;;;;8.70;6.28;;;;;;;;;;4978221;28;20571;-81
2023/12/13 10:03:21;;;;;;;7.70;5.57;;;;;;;;;;4977335;28;20404;-81
2023/12/13 10:05:47;;;;;;;7.85;5.07;;;;;;;;;;4980256;28;20026;-81
2023/12/13 10:08:13;;;;;;;9.52;6.18;;;;;;;;;;4981763;28;20047;-81
2023/12/13 10:10:39;;;;;;;7.47;5.28;;;;;;;;;;4977312;28;20035;-81
2023/12/13 10:13:06;;;;;;;8.85;5.13;;;;;;;;;;4981688;28;20052;-82
2023/12/13 10:15:31;;;;;;;7.88;4.47;;;;;;;;;;4982231;28;20046;-81
2023/12/13 10:17:57;;;;;;;8.25;5.38;;;;;;;;;;4980201;28;20022;-82
2023/12/13 10:20:22;;;;;;;7.97;4.65;;;;;;;;;;4980307;28;20535;-81
2023/12/13 10:22:48;;;;;;;7.07;4.25;;;;;;;;;;4978407;28;20372;-81
2023/12/13 10:25:13;;;;;;;7.68;4.72;;;;;;;;;;4976001;28;20061;-82
2023/12/13 10:27:40;;;;;;;9.15;4.35;;;;;;;;;;4978125;28;20414;-81
2023/12/13 10:30:05;;;;;;;7.53;4.32;;;;;;;;;;5025041;23;20605;-75
2023/12/13 10:32:31;;;;;;;8.30;4.63;;;;;;;;;;4963185;28;20347;-76
2023/12/13 10:34:56;;;;;;;9.10;4.63;;;;;;;;;;4967226;28;20071;-77
2023/12/13 10:37:26;;;;;;;6.80;4.57;;;;;;;;;;4964383;28;20062;-76
2023/12/13 10:39:53;;;;;;;8.77;4.97;;;;;;;;;;4968494;28;20031;-76
2023/12/13 10:42:20;;;;;;;9.35;4.85;;;;;;;;;;4966029;28;20046;-76
2023/12/13 10:44:46;;;;;;;8.48;4.35;;;;;;;;;;4977630;28;20031;-77
2023/12/13 10:47:12;;;;;;;7.53;3.92;;;;;;;;;;4963038;28;20449;-76
2023/12/13 10:49:38;;;;;;;8.65;4.43;;;;;;;;;;4966095;28;20110;-76
2023/12/13 10:52:05;;;;;;;8.02;4.35;;;;;;;;;;4967059;28;20058;-76
2023/12/13 10:54:31;;;;;;;8.52;3.92;;;;;;;;;;4964644;28;20100;-76
2023/12/13 10:56:56;;;;;;;7.25;3.83;;;;;;;;;;4964926;28;20027;-76
2023/12/13 10:59:25;;;;;;;8.18;3.85;;;;;;;;;;4961873;28;20041;-76
2023/12/13 11:01:51;;;;;;;6.40;3.97;;;;;;;;;;4964255;28;20144;-75
2023/12/13 11:04:17;;;;;;;6.57;3.85;;;;;;;;;;4968027;28;20503;-77
2023/12/13 11:06:45;;;;;;;6.85;3.67;;;;;;;;;;4968340;28;20080;-76
2023/12/13 11:09:13;;;;;;;8.07;3.72;;;;;;;;;;4965262;28;20510;-77
2023/12/13 11:11:38;;;;;;;7.50;3.75;;;;;;;;;;4967813;28;20027;-77
2023/12/13 11:14:05;;;;;;;9.30;4.35;;;;;;;;;;4966948;28;20058;-76
2023/12/13 11:16:37;;;;;;;6.63;3.03;;;;;;;;;;4961926;28;20031;-77
2023/12/13 11:19:02;;;;;;;6.40;3.47;;;;;;;;;;4965055;28;20062;-76
2023/12/13 11:21:32;;;;;;;5.95;3.15;;;;;;;;;;4966356;28;20939;-76
2023/12/13 11:24:08;;;;;;;6.00;2.72;;;;;;;;;;4962792;28;20034;-75
2023/12/13 11:26:35;;;;;;;6.82;2.90;;;;;;;;;;4967548;28;20058;-76
2023/12/13 11:29:01;;;;;;;6.28;2.90;;;;;;;;;;4966285;28;20377;-77
2023/12/13 11:31:26;;;;;;;7.13;2.35;;;;;;;;;;4965386;28;20037;-76
2023/12/13 11:33:56;;;;;;;6.20;3.20;;;;;;;;;;4959938;28;20030;-76
2023/12/13 11:36:21;;;;;;;6.20;2.55;;;;;;;;;;4965181;28;20032;-76
2023/12/13 11:38:50;;;;;;;6.00;2.15;;;;;;;;;;4965666;28;20027;-76
2023/12/13 11:41:16;;;;;;;4.72;2.50;;;;;;;;;;4974096;28;20042;-76
2023/12/13 11:43:43;;;;;;;5.88;2.92;;;;;;;;;;4965408;28;20054;-76
2023/12/13 11:46:09;;;;;;;4.85;2.97;;;;;;;;;;4964034;28;20035;-77
2023/12/13 11:48:35;;;;;;;5.47;2.60;;;;;;;;;;4966485;28;20045;-76
2023/12/13 11:51:00;;;;;;;5.63;2.33;;;;;;;;;;4963839;28;20496;-76
2023/12/13 11:53:25;;;;;;;4.88;1.92;;;;;;;;;;4966369;28;20039;-77
2023/12/13 11:55:50;;;;;;;4.65;2.17;;;;;;;;;;4962913;28;20084;-77
2023/12/13 11:58:16;;;;;;;4.70;1.95;;;;;;;;;;4968105;28;20031;-77
2023/12/13 12:00:42;;;;;;;3.45;1.65;;;;;;;;;;4968476;28;20055;-77
2023/12/13 12:03:07;;;;;;;4.30;1.45;;;;;;;;;;4970194;28;20035;-77
2023/12/13 12:05:33;;;;;;;5.10;1.70;;;;;;;;;;4969467;28;20023;-77
2023/12/13 12:08:01;;;;;;;5.72;1.80;;;;;;;;;;4965061;28;20031;-77
2023/12/13 12:10:26;;;;;;;3.47;1.48;;;;;;;;;;4968818;28;20430;-76
2023/12/13 12:12:51;;;;;;;4.82;1.88;;;;;;;;;;4979805;28;20030;-77
2023/12/13 12:15:19;;;;;;;4.25;1.70;;;;;;;;;;4970965;28;20031;-77
2023/12/13 12:17:44;;;;;;;6.00;1.77;;;;;;;;;;4969018;28;20019;-77
2023/12/13 12:20:09;;;;;;;5.05;1.80;;;;;;;;;;4968049;28;20522;-77
2023/12/13 12:22:35;;;;;;;4.85;1.55;;;;;;;;;;4963786;28;20080;-76
2023/12/13 12:25:00;;;;;;;6.13;1.70;;;;;;;;;;4970174;28;20479;-76
2023/12/13 12:27:26;;;;;;;4.32;1.70;;;;;;;;;;4965824;28;20410;-77
2023/12/13 12:29:52;;;;;;;4.72;1.77;;;;;;;;;;4970805;28;20125;-78
2023/12/13 12:32:17;;;;;;;3.97;1.52;;;;;;;;;;4967980;28;20458;-77
2023/12/13 12:34:46;;;;;;;4.50;1.75;;;;;;;;;;4968885;28;20031;-77
2023/12/13 12:37:12;;;;;;;5.32;1.70;;;;;;;;;;4963386;28;20067;-77
2023/12/13 12:39:37;;;;;;;3.75;1.48;;;;;;;;;;4968441;28;20043;-77
2023/12/13 12:42:03;;;;;;;9.17;3.50;;;;;;;;;;4971732;28;20064;-78
2023/12/13 12:44:28;;;;;;;3.92;2.20;;;;;;;;;;4970096;28;20284;-77
2023/12/13 12:46:53;;;;;;;3.17;1.50;;;;;;;;;;4968430;28;20027;-77
2023/12/13 12:49:18;;;;;;;6.82;1.80;;;;;;;;;;4965514;28;20123;-77
2023/12/13 12:51:44;;;;;;;4.90;2.27;;;;;;;;;;4968750;28;20035;-77
2023/12/13 12:54:09;;;;;;;4.45;2.38;;;;;;;;;;4964362;28;20282;-77
2023/12/13 12:56:36;;;;;;;5.03;1.70;;;;;;;;;;4970416;28;20039;-77
2023/12/13 12:59:01;;;;;;;5.40;1.88;;;;;;;;;;4969044;28;20575;-76
2023/12/13 13:01:26;;;;;;;4.30;1.63;;;;;;;;;;4967237;28;20137;-78
2023/12/13 13:03:52;;;;;;;6.38;1.90;;;;;;;;;;4968578;28;20027;-77
2023/12/13 13:06:17;;;;;;;5.60;1.75;;;;;;;;;;4961699;28;20050;-76
2023/12/13 13:08:43;;;;;;;3.17;1.30;;;;;;;;;;4962613;28;20498;-77
2023/12/13 13:11:09;;;;;;;3.83;1.55;;;;;;;;;;4966445;28;20039;-77
2023/12/13 13:13:34;;;;;;;5.13;1.77;;;;;;;;;;4971326;28;20458;-77
2023/12/13 13:15:59;;;;;;;5.60;1.90;;;;;;;;;;4966526;28;20042;-76
2023/12/13 13:18:24;;;;;;;3.87;1.60;;;;;;;;;;4964527;28;20034;-77
2023/12/13 13:20:50;;;;;;;3.42;1.50;;;;;;;;;;4963678;28;20612;-77
2023/12/13 13:23:15;;;;;;;4.38;1.63;;;;;;;;;;4964916;28;20058;-77
2023/12/13 13:25:40;;;;;;;4.43;1.50;;;;;;;;;;4968515;28;20027;-75
2023/12/13 13:28:06;;;;;;;6.00;2.10;;;;;;;;;;4967791;28;20035;-75
2023/12/13 13:30:32;;;;;;;5.03;1.95;;;;;;;;;;4964754;28;20541;-75
2023/12/13 13:32:57;;;;;;;5.65;1.33;;;;;;;;;;4963870;28;20038;-75
2023/12/13 13:35:24;;;;;;;5.22;1.38;;;;;;;;;;4962630;28;20040;-74
2023/12/13 13:37:49;;;;;;;4.38;1.30;;;;;;;;;;4966490;28;20034;-75
2023/12/13 13:40:15;;;;;;;4.18;1.10;;;;;;;;;;4967642;28;20027;-75
2023/12/13 13:42:40;;;;;;;4.68;1.45;;;;;;;;;;4968559;28;20042;-75
2023/12/13 13:45:06;;;;;;;3.97;1.23;;;;;;;;;;4965960;28;20112;-75
2023/12/13 13:47:31;;;;;;;4.65;1.40;;;;;;;;;;4964153;28;20640;-75
2023/12/13 13:49:56;;;;;;;3.58;1.02;;;;;;;;;;4960258;28;20037;-75
2023/12/13 13:52:22;;;;;;;4.20;1.10;;;;;;;;;;4966859;28;20027;-73
2023/12/13 13:54:47;;;;;;;4.60;1.27;;;;;;;;;;4964993;28;20301;-75
2023/12/13 13:57:12;;;;;;;6.10;1.50;;;;;;;;;;4963089;28;20027;-74
2023/12/13 13:59:38;;;;;;;8.30;2.00;;;;;;;;;;4965453;28;20479;-75
2023/12/13 14:02:03;;;;;;;3.85;1.30;;;;;;;;;;4961529;28;20028;-75
2023/12/13 14:04:28;;;;;;;4.53;1.70;;;;;;;;;;4964711;28;20031;-74
2023/12/13 14:06:53;;;;;;;3.90;1.67;;;;;;;;;;4968645;28;20372;-75
2023/12/13 14:09:19;;;;;;;3.25;1.45;;;;;;;;;;4965472;28;20111;-75
2023/12/13 14:11:44;;;;;;;6.07;2.10;;;;;;;;;;4966378;28;20474;-74
2023/12/13 14:14:09;;;;;;;4.30;1.83;;;;;;;;;;4964471;28;20039;-75
2023/12/13 14:16:35;;;;;;;4.22;1.60;;;;;;;;;;4962878;28;20076;-75
2023/12/13 14:19:01;;;;;;;6.45;2.08;;;;;;;;;;4961626;28;20502;-75
2023/12/13 14:21:26;;;;;;;5.30;1.92;;;;;;;;;;4967601;28;20039;-75
2023/12/13 14:23:52;;;;;;;3.67;1.27;;;;;;;;;;4963578;28;20037;-75